createdAt,value
2022-07-26T00:02:18.244Z,59.37
2022-07-26T00:04:48.185Z,59.50
2022-07-26T00:07:21.277Z,59.38
2022-07-26T00:09:54.689Z,59.62
2022-07-26T00:12:27.857Z,59.68
2022-07-26T00:15:02.259Z,59.86
2022-07-26T00:17:35.411Z,60.07
2022-07-26T00:20:12.096Z,59.89
2022-07-26T00:22:45.367Z,60.13
2022-07-26T00:25:18.404Z,59.88
2022-07-26T00:27:51.787Z,60.06
2022-07-26T00:30:25.122Z,60.30
2022-07-26T00:32:58.383Z,60.35
2022-07-26T00:35:31.324Z,60.69
2022-07-26T00:38:04.461Z,60.97
2022-07-26T00:40:37.413Z,61.39
2022-07-26T00:43:12.130Z,61.36
2022-07-26T00:45:45.790Z,61.15
2022-07-26T00:48:19.268Z,61.23
2022-07-26T00:50:54.035Z,61.36
2022-07-26T00:53:27.132Z,61.68
2022-07-26T00:56:03.515Z,61.89
2022-07-26T00:58:36.895Z,61.47
2022-07-26T01:01:10.454Z,61.15
2022-07-26T01:03:44.350Z,61.17
2022-07-26T01:06:17.541Z,61.25
2022-07-26T01:08:51.428Z,61.40
2022-07-26T01:11:24.721Z,61.64
2022-07-26T01:13:57.665Z,61.53
2022-07-26T01:16:32.340Z,61.85
2022-07-26T01:19:05.537Z,61.79
2022-07-26T01:21:38.650Z,61.54
2022-07-26T01:24:11.841Z,61.58
2022-07-26T01:26:45.006Z,61.90
2022-07-26T01:29:18.285Z,62.25
2022-07-26T01:31:52.295Z,62.55
2022-07-26T01:34:25.375Z,62.78
2022-07-26T01:36:58.679Z,63.03
2022-07-26T01:39:31.720Z,62.85
2022-07-26T01:42:05.027Z,62.81
2022-07-26T01:44:38.038Z,62.67
2022-07-26T01:47:11.153Z,62.82
2022-07-26T01:49:44.254Z,63.02
2022-07-26T01:52:19.431Z,63.21
2022-07-26T01:54:52.498Z,63.27
2022-07-26T01:57:28.321Z,63.23
2022-07-26T02:00:01.659Z,63.12
2022-07-26T02:02:37.126Z,63.12
2022-07-26T02:05:11.422Z,63.18
2022-07-26T02:07:45.414Z,63.20
2022-07-26T02:10:18.583Z,63.32
2022-07-26T02:12:51.824Z,63.22
2022-07-26T02:15:26.529Z,63.21
2022-07-26T02:18:00.575Z,63.21
2022-07-26T02:20:33.730Z,63.35
2022-07-26T02:23:07.214Z,63.47
2022-07-26T02:25:40.402Z,63.51
2022-07-26T02:28:13.519Z,63.60
2022-07-26T02:30:50.260Z,63.76
2022-07-26T02:33:24.182Z,63.68
2022-07-26T02:35:57.332Z,63.32
2022-07-26T02:38:30.549Z,62.94
2022-07-26T02:41:03.621Z,62.33
2022-07-26T02:43:39.636Z,62.55
2022-07-26T02:46:12.848Z,62.49
2022-07-26T02:48:46.221Z,62.36
2022-07-26T02:51:19.391Z,62.29
2022-07-26T02:53:53.933Z,62.18
2022-07-26T02:56:26.932Z,62.25
2022-07-26T02:59:00.011Z,62.01
2022-07-26T03:01:35.770Z,61.58
2022-07-26T03:04:09.339Z,61.50
2022-07-26T03:06:42.944Z,61.39
2022-07-26T03:09:16.023Z,61.59
2022-07-26T03:11:49.217Z,61.53
2022-07-26T03:14:22.545Z,61.62
2022-07-26T03:16:58.332Z,61.92
2022-07-26T03:19:31.335Z,61.70
2022-07-26T03:22:04.734Z,61.73
2022-07-26T03:24:40.099Z,61.40
2022-07-26T03:27:13.962Z,61.26
2022-07-26T03:29:46.955Z,61.25
2022-07-26T03:32:20.460Z,61.10
2022-07-26T03:34:53.623Z,61.06
2022-07-26T03:37:26.762Z,61.43
2022-07-26T03:40:01.514Z,61.42
2022-07-26T03:42:34.902Z,61.73
2022-07-26T03:45:10.548Z,62.02
2022-07-26T03:47:43.971Z,61.82
2022-07-26T03:50:17.090Z,61.41
2022-07-26T03:52:50.165Z,61.18
2022-07-26T03:55:40.781Z,61.32
2022-07-26T03:58:14.002Z,61.46
2022-07-26T04:00:47.140Z,61.01
2022-07-26T04:03:20.967Z,60.74
2022-07-26T04:05:53.962Z,60.51
2022-07-26T04:08:29.390Z,60.86
2022-07-26T04:11:02.359Z,60.51
2022-07-26T04:13:36.721Z,60.32
2022-07-26T04:16:10.518Z,60.42
2022-07-26T04:18:43.703Z,60.15
2022-07-26T04:21:17.262Z,59.56
2022-07-26T04:23:52.033Z,59.35
2022-07-26T04:26:39.281Z,59.76
2022-07-26T04:29:17.857Z,60.10
2022-07-26T04:31:50.840Z,60.25
2022-07-26T04:34:34.805Z,60.33
2022-07-26T04:37:15.346Z,60.19
2022-07-26T04:39:55.043Z,59.58
2022-07-26T04:42:36.950Z,59.39
2022-07-26T04:45:24.210Z,59.14
2022-07-26T04:48:22.017Z,58.95
2022-07-26T04:50:48.277Z,58.90
2022-07-26T04:53:22.323Z,58.74
2022-07-26T04:55:58.756Z,58.81
2022-07-26T04:58:31.755Z,58.89
2022-07-26T05:01:12.216Z,59.08
2022-07-26T05:03:40.802Z,58.87
2022-07-26T05:06:23.716Z,59.22
2022-07-26T05:08:58.382Z,59.31
2022-07-26T05:11:31.476Z,59.29
2022-07-26T05:14:07.912Z,59.52
2022-07-26T05:16:44.268Z,59.33
2022-07-26T05:19:16.158Z,59.05
2022-07-26T05:21:49.198Z,59.09
2022-07-26T05:24:22.133Z,59.02
2022-07-26T05:26:58.547Z,58.83
2022-07-26T05:29:29.917Z,58.80
2022-07-26T05:32:02.877Z,58.54
2022-07-26T05:34:35.986Z,58.05
2022-07-26T05:37:09.203Z,57.60
2022-07-26T05:39:42.553Z,57.64
2022-07-26T05:42:15.579Z,57.33
2022-07-26T05:44:48.506Z,57.06
2022-07-26T05:47:22.554Z,56.74
2022-07-26T05:49:55.616Z,56.41
2022-07-26T05:52:29.109Z,56.40
2022-07-26T05:55:02.205Z,56.24
2022-07-26T05:57:35.328Z,56.12
2022-07-26T06:00:13.784Z,56.28
2022-07-26T06:02:46.743Z,56.23
2022-07-26T06:05:20.251Z,55.92
2022-07-26T06:07:53.287Z,56.18
2022-07-26T06:10:26.478Z,56.10
2022-07-26T06:13:00.744Z,55.90
2022-07-26T06:15:33.849Z,55.75
2022-07-26T06:18:07.482Z,55.80
2022-07-26T06:20:42.762Z,55.61
2022-07-26T06:23:16.167Z,55.27
2022-07-26T06:25:49.381Z,55.26
2022-07-26T06:28:22.666Z,55.29
2022-07-26T06:30:55.611Z,55.08
2022-07-26T06:33:28.720Z,54.47
2022-07-26T06:36:01.816Z,54.26
2022-07-26T06:38:34.962Z,54.76
2022-07-26T06:41:27.193Z,54.97
2022-07-26T06:43:57.926Z,54.92
2022-07-26T06:46:31.150Z,55.19
2022-07-26T06:49:04.229Z,54.95
2022-07-26T06:51:38.959Z,55.00
2022-07-26T06:54:12.086Z,54.87
2022-07-26T06:56:45.227Z,55.01
2022-07-26T06:59:18.340Z,54.67
2022-07-26T07:01:58.525Z,53.98
2022-07-26T07:04:25.931Z,53.13
2022-07-26T07:07:01.578Z,51.88
2022-07-26T07:09:36.472Z,49.22
2022-07-26T07:12:10.888Z,46.49
2022-07-26T07:14:44.421Z,42.15
2022-07-26T07:17:20.919Z,38.53
2022-07-26T07:19:53.957Z,36.32
2022-07-26T07:22:26.933Z,35.51
2022-07-26T07:25:00.938Z,34.25
2022-07-26T07:27:35.580Z,33.57
2022-07-26T07:30:11.137Z,33.85
2022-07-26T07:32:44.520Z,34.41
2022-07-26T07:35:17.612Z,35.71
2022-07-26T07:37:54.162Z,35.98
2022-07-26T07:40:27.361Z,36.54
2022-07-26T07:43:02.251Z,36.93
2022-07-26T07:45:35.229Z,36.87
2022-07-26T07:48:08.800Z,35.72
2022-07-26T07:50:41.779Z,33.61
2022-07-26T07:53:15.035Z,31.71
2022-07-26T07:55:47.977Z,30.09
2022-07-26T07:58:22.441Z,30.00
2022-07-26T08:00:55.441Z,29.46
2022-07-26T08:03:38.740Z,28.38
2022-07-26T08:06:04.584Z,27.45
2022-07-26T08:08:39.656Z,25.48
2022-07-26T08:11:12.889Z,22.62
2022-07-26T08:13:48.061Z,22.96
2022-07-26T08:16:21.132Z,22.01
2022-07-26T08:18:57.998Z,20.73
2022-07-26T08:21:29.479Z,21.34
2022-07-26T08:26:54.083Z,21.03
2022-07-26T08:29:27.046Z,21.42
2022-07-26T08:32:01.273Z,21.56
2022-07-26T08:34:34.418Z,21.71
2022-07-26T08:37:16.936Z,21.37
2022-07-26T08:39:42.654Z,20.97
2022-07-26T08:42:22.475Z,20.37
2022-07-26T08:44:55.504Z,20.04
2022-07-26T08:47:39.828Z,18.92
2022-07-26T08:50:03.305Z,17.89
2022-07-26T08:52:36.661Z,17.61
2022-07-26T08:55:11.361Z,18.15
2022-07-26T08:57:44.425Z,19.28
2022-07-26T09:00:19.345Z,18.87
2022-07-26T09:02:52.676Z,18.36
2022-07-26T09:05:31.763Z,17.31
2022-07-26T09:08:11.092Z,16.66
2022-07-26T09:13:25.640Z,15.63
2022-07-26T09:16:12.765Z,15.97
2022-07-26T09:18:45.919Z,15.83
2022-07-26T09:21:30.509Z,14.81
2022-07-26T09:24:03.635Z,14.29
2022-07-26T09:26:36.958Z,14.86
2022-07-26T09:29:12.571Z,14.62
2022-07-26T09:31:46.092Z,14.77
2022-07-26T09:34:26.718Z,16.05
2022-07-26T09:36:59.905Z,16.70
2022-07-26T09:39:34.005Z,16.10
2022-07-26T09:42:27.611Z,17.49
2022-07-26T09:44:47.761Z,16.36
2022-07-26T09:47:21.893Z,15.72
2022-07-26T09:50:11.949Z,16.04
2022-07-26T09:53:03.304Z,18.09
2022-07-26T09:55:44.625Z,20.99
2022-07-26T09:58:14.774Z,23.25
2022-07-26T10:00:48.685Z,24.69
2022-07-26T10:03:21.886Z,26.15
2022-07-26T10:05:56.256Z,27.04
2022-07-26T10:08:30.975Z,25.63
2022-07-26T10:11:08.039Z,25.03
2022-07-26T10:13:40.992Z,26.45
2022-07-26T10:16:31.407Z,27.27
2022-07-26T10:19:05.670Z,27.68
2022-07-26T10:21:38.743Z,25.06
2022-07-26T10:24:18.899Z,22.41
2022-07-26T10:26:51.873Z,21.12
2022-07-26T10:29:29.957Z,19.12
2022-07-26T10:32:21.552Z,17.88
2022-07-26T10:34:54.601Z,18.31
2022-07-26T10:37:29.802Z,17.81
2022-07-26T10:43:39.674Z,18.60
2022-07-26T10:45:49.833Z,19.50
2022-07-26T10:48:25.040Z,20.02
2022-07-26T10:51:00.800Z,19.37
2022-07-26T10:53:33.860Z,19.58
2022-07-26T10:56:07.479Z,20.63
2022-07-26T10:58:45.433Z,21.30
2022-07-26T11:01:19.173Z,21.03
2022-07-26T11:03:52.187Z,21.05
2022-07-26T11:06:27.182Z,21.19
2022-07-26T11:09:04.308Z,21.12
2022-07-26T11:11:37.285Z,20.23
2022-07-26T11:14:12.504Z,19.74
2022-07-26T11:16:47.531Z,21.52
2022-07-26T11:19:21.938Z,24.15
2022-07-26T11:21:58.829Z,26.08
2022-07-26T11:24:31.875Z,27.80
2022-07-26T11:27:06.911Z,29.18
2022-07-26T11:29:41.574Z,29.62
2022-07-26T11:32:20.568Z,30.09
2022-07-26T11:35:02.070Z,30.44
2022-07-26T11:37:35.212Z,30.85
2022-07-26T11:40:10.560Z,31.34
2022-07-26T11:42:45.195Z,31.65
2022-07-26T11:45:19.488Z,32.09
2022-07-26T11:47:53.849Z,32.48
2022-07-26T11:50:26.973Z,33.16
2022-07-26T11:52:59.937Z,33.60
2022-07-26T11:55:33.504Z,33.76
2022-07-26T11:58:08.021Z,34.23
2022-07-26T12:00:41.149Z,33.42
2022-07-26T12:03:14.507Z,31.79
2022-07-26T12:06:03.423Z,32.20
2022-07-26T12:08:45.028Z,32.95
2022-07-26T12:11:19.106Z,33.17
2022-07-26T12:13:58.287Z,32.93
2022-07-26T12:16:38.897Z,33.28
2022-07-26T12:19:15.151Z,33.67
2022-07-26T12:21:50.086Z,33.97
2022-07-26T12:24:47.562Z,33.20
2022-07-26T12:27:22.662Z,32.39
2022-07-26T12:29:57.359Z,33.02
2022-07-26T12:32:35.682Z,33.22
2022-07-26T12:35:10.626Z,32.61
2022-07-26T12:37:54.198Z,31.82
2022-07-26T12:40:29.040Z,32.00
2022-07-26T12:43:03.197Z,32.33
2022-07-26T12:45:38.301Z,32.86
2022-07-26T12:48:12.760Z,33.23
2022-07-26T12:50:45.676Z,33.83
2022-07-26T12:53:20.430Z,34.04
2022-07-26T12:55:53.393Z,34.47
2022-07-26T12:58:26.435Z,35.00
2022-07-26T13:00:59.333Z,35.44
2022-07-26T13:03:32.354Z,36.04
2022-07-26T13:06:05.452Z,36.63
2022-07-26T13:08:38.478Z,37.04
2022-07-26T13:11:11.683Z,37.54
2022-07-26T13:13:44.588Z,37.22
2022-07-26T13:16:17.659Z,37.42
2022-07-26T13:18:50.976Z,37.13
2022-07-26T13:21:24.020Z,37.42
2022-07-26T13:23:58.227Z,37.28
2022-07-26T13:26:32.421Z,37.45
2022-07-26T13:29:05.449Z,37.64
2022-07-26T13:31:39.323Z,38.03
2022-07-26T13:34:13.030Z,38.23
2022-07-26T13:36:46.768Z,38.30
2022-07-26T13:39:20.212Z,38.49
2022-07-26T13:41:53.676Z,38.73
2022-07-26T13:44:26.629Z,39.00
2022-07-26T13:46:59.717Z,38.76
2022-07-26T13:49:32.770Z,38.88
2022-07-26T13:52:06.503Z,39.76
2022-07-26T13:54:41.102Z,40.82
2022-07-26T13:57:14.155Z,41.86
2022-07-26T13:59:47.140Z,45.01
2022-07-26T14:02:20.888Z,47.85
2022-07-26T14:04:54.026Z,50.77
2022-07-26T14:07:26.988Z,52.22
2022-07-26T14:09:59.968Z,51.73
2022-07-26T14:12:35.555Z,51.99
2022-07-26T14:15:15.240Z,51.87
2022-07-26T14:17:47.374Z,50.96
2022-07-26T14:20:21.203Z,50.24
2022-07-26T14:22:55.925Z,49.60
2022-07-26T14:25:29.429Z,50.01
2022-07-26T14:28:04.321Z,49.52
2022-07-26T14:30:37.591Z,49.72
2022-07-26T14:33:10.676Z,49.71
2022-07-26T14:35:44.136Z,49.58
2022-07-26T14:38:24.349Z,48.67
2022-07-26T14:40:51.897Z,48.55
2022-07-26T14:43:26.805Z,48.31
2022-07-26T14:45:59.847Z,48.26
2022-07-26T14:48:53.359Z,48.17
2022-07-26T14:51:09.810Z,47.93
2022-07-26T14:53:44.169Z,47.76
2022-07-26T14:56:17.113Z,47.19
2022-07-26T14:58:50.184Z,47.39
2022-07-26T15:01:23.215Z,47.57
2022-07-26T15:03:56.501Z,47.83
2022-07-26T15:06:29.669Z,48.11
2022-07-26T15:09:02.789Z,48.40
2022-07-26T15:11:36.444Z,48.44
2022-07-26T15:14:09.741Z,48.63
2022-07-26T15:16:43.066Z,48.09
2022-07-26T15:19:16.201Z,47.73
2022-07-26T15:21:49.889Z,47.67
2022-07-26T15:24:24.343Z,47.39
2022-07-26T15:26:57.593Z,47.03
2022-07-26T15:29:31.559Z,46.77
2022-07-26T15:32:04.953Z,46.56
2022-07-26T15:34:38.149Z,47.30
2022-07-26T15:37:11.845Z,47.01
2022-07-26T15:39:44.900Z,47.11
2022-07-26T15:42:18.161Z,46.79
2022-07-26T15:44:52.324Z,46.72
2022-07-26T15:47:52.495Z,46.79
2022-07-26T15:50:01.895Z,46.88
2022-07-26T15:52:34.803Z,46.95
2022-07-26T15:55:09.476Z,46.64
2022-07-26T15:57:43.032Z,46.26
2022-07-26T16:00:19.953Z,45.85
2022-07-26T16:02:53.298Z,46.38
2022-07-26T16:05:26.308Z,46.52
2022-07-26T16:07:59.298Z,46.16
2022-07-26T16:10:32.321Z,46.20
2022-07-26T16:13:06.400Z,46.07
2022-07-26T16:15:39.781Z,47.07
2022-07-26T16:18:13.210Z,47.69
2022-07-26T16:20:46.731Z,47.42
2022-07-26T16:23:19.768Z,47.52
2022-07-26T16:25:53.468Z,47.46
2022-07-26T16:28:26.365Z,46.88
2022-07-26T16:30:59.337Z,47.29
2022-07-26T16:33:32.397Z,47.22
2022-07-26T16:36:06.913Z,47.66
2022-07-26T16:38:40.267Z,48.04
2022-07-26T16:41:13.458Z,48.21
2022-07-26T16:43:46.594Z,48.19
2022-07-26T16:46:19.956Z,48.55
2022-07-26T16:48:53.030Z,48.59
2022-07-26T16:51:26.010Z,48.52
2022-07-26T16:53:59.184Z,49.02
2022-07-26T16:56:32.537Z,49.65
2022-07-26T16:59:10.327Z,49.39
2022-07-26T17:01:41.447Z,49.85
2022-07-26T17:04:14.547Z,50.25
2022-07-26T17:07:07.755Z,50.41
2022-07-26T17:09:22.551Z,50.30
2022-07-26T17:11:55.985Z,49.52
2022-07-26T17:14:29.011Z,49.20
2022-07-26T17:17:01.978Z,49.51
2022-07-26T17:19:34.963Z,49.66
2022-07-26T17:22:07.930Z,50.04
2022-07-26T17:24:40.927Z,49.62
2022-07-26T17:27:13.822Z,50.00
2022-07-26T17:29:47.059Z,50.34
2022-07-26T17:32:20.043Z,50.92
2022-07-26T17:34:53.053Z,50.53
2022-07-26T17:37:26.360Z,50.08
2022-07-26T17:40:01.142Z,50.17
2022-07-26T17:42:34.525Z,50.37
2022-07-26T17:45:09.619Z,50.62
2022-07-26T17:47:42.703Z,50.94
2022-07-26T17:52:51.875Z,50.79
2022-07-26T17:55:25.312Z,50.72
2022-07-26T17:57:58.886Z,51.02
2022-07-26T18:00:32.138Z,51.44
2022-07-26T18:03:05.163Z,51.30
2022-07-26T18:05:41.428Z,51.52
2022-07-26T18:08:13.362Z,52.09
2022-07-26T18:10:50.853Z,52.06
2022-07-26T18:13:21.574Z,52.17
2022-07-26T18:15:57.129Z,52.44
2022-07-26T18:18:30.500Z,52.57
2022-07-26T18:21:03.440Z,52.29
2022-07-26T18:23:36.888Z,52.41
2022-07-26T18:26:10.387Z,52.51
2022-07-26T18:28:43.697Z,52.29
2022-07-26T18:31:18.867Z,52.42
2022-07-26T18:33:52.083Z,52.34
2022-07-26T18:36:25.596Z,52.35
2022-07-26T18:39:00.095Z,52.76
2022-07-26T18:41:34.408Z,53.22
2022-07-26T18:44:08.069Z,53.42
2022-07-26T18:46:41.537Z,53.67
2022-07-26T18:49:19.910Z,53.98
2022-07-26T18:51:50.451Z,54.20
2022-07-26T18:54:25.389Z,54.14
2022-07-26T18:56:59.041Z,54.24
2022-07-26T18:59:32.242Z,54.32
2022-07-26T19:02:05.404Z,54.44
2022-07-26T19:04:38.896Z,54.48
2022-07-26T19:07:12.187Z,54.57
2022-07-26T19:09:45.278Z,54.56
2022-07-26T19:12:18.272Z,54.66
2022-07-26T19:14:51.656Z,54.68
2022-07-26T19:17:25.012Z,54.89
2022-07-26T19:20:00.195Z,55.03
2022-07-26T19:22:34.579Z,55.20
2022-07-26T19:25:10.839Z,55.36
2022-07-26T19:27:44.507Z,55.49
2022-07-26T19:30:17.805Z,55.65
2022-07-26T19:32:51.108Z,55.69
2022-07-26T19:35:24.767Z,55.88
2022-07-26T19:37:58.076Z,56.08
2022-07-26T19:40:31.873Z,56.23
2022-07-26T19:43:05.517Z,56.15
2022-07-26T19:45:39.829Z,56.01
2022-07-26T19:48:13.046Z,55.91
2022-07-26T19:50:46.074Z,55.84
2022-07-26T19:53:19.519Z,55.96
2022-07-26T19:55:53.238Z,55.78
2022-07-26T19:58:27.174Z,55.56
2022-07-26T20:01:00.383Z,55.20
2022-07-26T20:03:34.249Z,55.29
2022-07-26T20:06:08.328Z,55.32
2022-07-26T20:08:41.746Z,55.41
2022-07-26T20:11:15.609Z,55.41
2022-07-26T20:13:48.933Z,55.57
2022-07-26T20:16:22.545Z,55.65
2022-07-26T20:18:55.817Z,55.78
2022-07-26T20:21:29.065Z,55.89
2022-07-26T20:24:02.599Z,55.94
2022-07-26T20:26:37.552Z,55.97
2022-07-26T20:29:11.875Z,56.05
2022-07-26T20:31:45.795Z,56.08
2022-07-26T20:34:18.959Z,56.21
2022-07-26T20:36:53.927Z,56.29
2022-07-26T20:39:27.964Z,56.23
2022-07-26T20:42:02.121Z,56.43
2022-07-26T20:44:37.599Z,56.41
2022-07-26T20:47:12.571Z,56.39
2022-07-26T20:49:45.866Z,56.40
2022-07-26T20:52:19.463Z,56.37
2022-07-26T20:54:53.438Z,56.35
2022-07-26T20:57:26.699Z,56.36
2022-07-26T20:59:59.962Z,56.44
2022-07-26T21:02:35.233Z,56.48
2022-07-26T21:05:10.615Z,56.49
2022-07-26T21:07:57.228Z,56.56
2022-07-26T21:10:18.915Z,56.56
2022-07-26T21:12:56.274Z,56.67
2022-07-26T21:15:29.796Z,56.58
2022-07-26T21:20:46.839Z,56.21
2022-07-26T21:23:21.535Z,56.85
2022-07-26T21:25:58.091Z,56.93
2022-07-26T21:28:30.896Z,57.09
2022-07-26T21:31:04.286Z,57.21
2022-07-26T21:33:37.656Z,57.36
2022-07-26T21:36:10.982Z,57.51
2022-07-26T21:38:44.698Z,57.54
2022-07-26T21:41:17.955Z,57.60
2022-07-26T21:43:51.251Z,57.61
2022-07-26T21:46:24.468Z,57.64
2022-07-26T21:48:57.902Z,57.73
2022-07-26T21:51:31.161Z,57.90
2022-07-26T21:54:04.701Z,57.92
2022-07-26T21:56:37.973Z,58.07
2022-07-26T21:59:11.967Z,58.24
2022-07-26T22:01:45.304Z,58.40
2022-07-26T22:04:18.625Z,58.51
2022-07-26T22:06:51.707Z,58.52
2022-07-26T22:09:24.951Z,58.62
2022-07-26T22:11:59.494Z,58.80
2022-07-26T22:14:32.792Z,58.86
2022-07-26T22:17:06.090Z,58.87
2022-07-26T22:19:39.444Z,58.96
2022-07-26T22:22:14.988Z,59.11
2022-07-26T22:24:48.046Z,59.17
2022-07-26T22:27:21.726Z,59.24
2022-07-26T22:29:55.010Z,59.33
2022-07-26T22:32:28.862Z,59.37
2022-07-26T22:35:02.250Z,59.56
2022-07-26T22:37:35.482Z,59.63
2022-07-26T22:40:11.333Z,59.87
2022-07-26T22:42:45.803Z,60.16
2022-07-26T22:45:19.209Z,60.22
2022-07-26T22:47:56.356Z,60.38
2022-07-26T22:50:28.819Z,60.29
2022-07-26T22:53:02.612Z,60.42
2022-07-26T22:55:35.922Z,60.53
2022-07-26T22:58:09.111Z,60.51
2022-07-26T23:00:42.622Z,60.64
2022-07-26T23:03:20.219Z,60.89
2022-07-26T23:05:55.066Z,60.92
2022-07-26T23:11:03.204Z,61.00
2022-07-26T23:13:37.131Z,61.16
2022-07-26T23:16:12.985Z,61.42
2022-07-26T23:18:46.240Z,61.64
2022-07-26T23:21:31.537Z,61.98
2022-07-26T23:24:06.661Z,61.80
2022-07-26T23:26:40.009Z,61.64
2022-07-26T23:29:13.614Z,61.59
2022-07-26T23:31:47.528Z,61.86
2022-07-26T23:34:20.746Z,61.90
2022-07-26T23:36:53.910Z,61.94
2022-07-26T23:39:27.402Z,62.10
2022-07-26T23:42:02.781Z,62.29
2022-07-26T23:44:39.034Z,62.39
2022-07-26T23:47:12.156Z,62.51
2022-07-26T23:49:45.212Z,62.53
2022-07-26T23:52:18.346Z,62.54
2022-07-26T23:54:51.463Z,62.49
2022-07-26T23:57:24.608Z,62.67
2022-07-26T23:59:57.735Z,62.63
